Aérodrome :
LOGIN :

S'inscrire | Disclaimer

   EN    FR    IT 

 










Légende :    VFR   VFR Marginal   IFR   IFR Intensif   IFR Très Intensif
Visi : 
Plafond : 
>= 8 km
>= 3000ft
5 à 8 km
1000 à 3000 ft
1500m à 5 km
500 à 1000 ft
800 à 1500m
200 à 500 ft
< 800m
< 200 ft
Symboles :   Orages  Brouillard  Fortes neiges  Fortes précipitations  Vent > 20 kt
SIGMETs :   Divers  Orages  Givrage  Turbulence  Onde Orograph.  Cendres Volcan.






- Altitude de l'aérodrome : 1043 ft
- Code IATA : SLD


LZSL - Sliac

DERNIER METAR :
  • 221630Z 34002KT 9000 FEW011 M04/M05 Q1026

METARs EXPIRÉS :
  • 221600Z 35004KT 9999 FEW011 M03/M05 Q1026
  • 221530Z 34004KT 9999 FEW011 M03/M05 Q1025
  • 221500Z 35004KT 9999 FEW011 M02/M05 Q1025
  • 221430Z 36004KT 330V030 9999 FEW011 M02/M05 Q1026
  • 221400Z VRB02KT 9999 SCT010 M02/M05 Q1026

TAF TAF LZSL
Valide du 22 à 15h jusqu'au 23 à 00h UTC


221400Z 2215/2300 33009KT CAVOK
BECMG 2217/2219 9999 SCT035



MET'MAP, la Météo Aéronautique d'un coup d'oeil ! - Copyright ORBIFLY Décembre 2007 - Disclaimer

ORBIFLY MET'MAP TEAM :

Programmation & Développement : Alexandra Zaïnal
Sur une idée originale de : Baudouin d'Aumeries
Assistance à la programmation : Marc-Olivier Méhu
Soutien technique & logistique : Manuel Goepfert

Contact : metmap@orbifly.com




SOURCES & CREDITS :

   NOAA